sensor_id;sensor_type;location;lat;lon;timestamp;noise_LAeq;noise_LA_min;noise_LA_max;noise_LA01;noise_LA95
61321;Laerm;17737;52.586;13.284;2023-12-14T00:01:20;62.66;52.61;66.53;;
61321;Laerm;17737;52.586;13.284;2023-12-14T00:03:48;62.86;52.57;66.26;;
61321;Laerm;17737;52.586;13.284;2023-12-14T00:06:17;62.18;52.32;66.29;;
61321;Laerm;17737;52.586;13.284;2023-12-14T00:08:45;64.56;52.30;75.76;;
61321;Laerm;17737;52.586;13.284;2023-12-14T00:11:13;62.42;54.09;71.06;;
61321;Laerm;17737;52.586;13.284;2023-12-14T00:13:41;62.97;52.12;66.45;;
61321;Laerm;17737;52.586;13.284;2023-12-14T00:16:10;62.76;52.61;65.72;;
61321;Laerm;17737;52.586;13.284;2023-12-14T00:18:39;62.29;52.94;66.55;;
61321;Laerm;17737;52.586;13.284;2023-12-14T00:21:07;64.00;52.29;94.55;;
61321;Laerm;17737;52.586;13.284;2023-12-14T00:23:35;63.55;53.37;66.56;;
61321;Laerm;17737;52.586;13.284;2023-12-14T00:26:04;63.41;53.58;66.47;;
61321;Laerm;17737;52.586;13.284;2023-12-14T00:28:32;63.39;53.62;66.32;;
61321;Laerm;17737;52.586;13.284;2023-12-14T00:31:00;63.45;53.11;66.84;;
61321;Laerm;17737;52.586;13.284;2023-12-14T00:33:28;63.42;57.72;66.30;;
61321;Laerm;17737;52.586;13.284;2023-12-14T00:35:58;63.40;52.80;66.52;;
61321;Laerm;17737;52.586;13.284;2023-12-14T00:38:26;63.39;56.04;66.21;;
61321;Laerm;17737;52.586;13.284;2023-12-14T00:40:54;63.03;57.03;65.92;;
61321;Laerm;17737;52.586;13.284;2023-12-14T00:43:23;63.07;59.53;66.23;;
61321;Laerm;17737;52.586;13.284;2023-12-14T00:45:51;62.16;55.42;65.54;;
61321;Laerm;17737;52.586;13.284;2023-12-14T00:48:19;86.93;53.73;99.55;;
61321;Laerm;17737;52.586;13.284;2023-12-14T00:50:47;101.54;54.23;110.01;;
61321;Laerm;17737;52.586;13.284;2023-12-14T00:53:17;92.65;53.98;105.37;;
61321;Laerm;17737;52.586;13.284;2023-12-14T00:55:45;102.74;55.23;108.72;;
61321;Laerm;17737;52.586;13.284;2023-12-14T00:58:13;101.71;56.11;112.58;;
61321;Laerm;17737;52.586;13.284;2023-12-14T01:00:42;106.50;56.09;112.75;;
61321;Laerm;17737;52.586;13.284;2023-12-14T01:03:10;103.85;94.55;111.96;;
61321;Laerm;17737;52.586;13.284;2023-12-14T01:05:38;97.28;88.70;102.10;;
61321;Laerm;17737;52.586;13.284;2023-12-14T01:08:06;95.74;87.46;103.24;;
61321;Laerm;17737;52.586;13.284;2023-12-14T01:10:36;96.93;52.56;112.20;;
61321;Laerm;17737;52.586;13.284;2023-12-14T01:13:04;91.59;80.74;100.47;;
61321;Laerm;17737;52.586;13.284;2023-12-14T01:15:33;87.87;80.43;92.32;;
61321;Laerm;17737;52.586;13.284;2023-12-14T01:18:01;88.40;80.68;94.42;;
61321;Laerm;17737;52.586;13.284;2023-12-14T01:20:29;90.13;77.93;109.98;;
61321;Laerm;17737;52.586;13.284;2023-12-14T01:22:57;84.57;76.32;90.31;;
61321;Laerm;17737;52.586;13.284;2023-12-14T01:25:26;82.97;75.32;88.29;;
61321;Laerm;17737;52.586;13.284;2023-12-14T01:27:55;82.81;75.53;87.10;;
61321;Laerm;17737;52.586;13.284;2023-12-14T01:30:23;82.87;76.19;87.31;;
61321;Laerm;17737;52.586;13.284;2023-12-14T01:32:52;82.66;75.31;87.40;;
61321;Laerm;17737;52.586;13.284;2023-12-14T01:35:20;85.15;76.11;92.42;;
61321;Laerm;17737;52.586;13.284;2023-12-14T01:37:48;99.72;55.20;112.70;;
61321;Laerm;17737;52.586;13.284;2023-12-14T01:40:18;100.34;55.90;112.16;;
61321;Laerm;17737;52.586;13.284;2023-12-14T01:42:47;101.12;54.50;112.36;;
61321;Laerm;17737;52.586;13.284;2023-12-14T01:45:17;93.13;80.61;104.31;;
61321;Laerm;17737;52.586;13.284;2023-12-14T01:47:45;89.40;78.24;103.10;;
61321;Laerm;17737;52.586;13.284;2023-12-14T01:50:13;98.99;52.75;111.47;;
61321;Laerm;17737;52.586;13.284;2023-12-14T01:52:41;103.13;53.09;112.28;;
61321;Laerm;17737;52.586;13.284;2023-12-14T01:55:09;99.37;54.02;111.56;;
61321;Laerm;17737;52.586;13.284;2023-12-14T01:57:38;92.01;80.19;102.16;;
61321;Laerm;17737;52.586;13.284;2023-12-14T02:00:07;86.63;76.80;95.25;;
61321;Laerm;17737;52.586;13.284;2023-12-14T02:02:36;94.37;81.62;106.88;;
61321;Laerm;17737;52.586;13.284;2023-12-14T02:05:06;86.02;77.50;91.91;;
61321;Laerm;17737;52.586;13.284;2023-12-14T02:07:34;84.25;75.87;89.57;;
61321;Laerm;17737;52.586;13.284;2023-12-14T02:10:03;83.65;75.92;89.50;;
61321;Laerm;17737;52.586;13.284;2023-12-14T02:12:31;84.60;74.65;96.28;;
61321;Laerm;17737;52.586;13.284;2023-12-14T02:15:00;86.48;76.88;94.37;;
61321;Laerm;17737;52.586;13.284;2023-12-14T02:17:28;83.00;75.59;88.42;;
61321;Laerm;17737;52.586;13.284;2023-12-14T02:19:57;97.00;52.83;111.68;;
61321;Laerm;17737;52.586;13.284;2023-12-14T02:22:27;86.31;75.29;96.22;;
61321;Laerm;17737;52.586;13.284;2023-12-14T02:24:56;80.48;72.49;85.55;;
61321;Laerm;17737;52.586;13.284;2023-12-14T02:27:24;80.39;73.04;85.36;;
61321;Laerm;17737;52.586;13.284;2023-12-14T02:29:52;82.75;75.47;87.46;;
61321;Laerm;17737;52.586;13.284;2023-12-14T02:32:20;85.49;76.14;96.04;;
61321;Laerm;17737;52.586;13.284;2023-12-14T02:34:52;84.88;76.37;91.77;;
61321;Laerm;17737;52.586;13.284;2023-12-14T02:37:20;83.08;76.21;87.73;;
61321;Laerm;17737;52.586;13.284;2023-12-14T02:39:48;84.47;76.08;92.19;;
61321;Laerm;17737;52.586;13.284;2023-12-14T02:42:17;86.11;76.90;91.84;;
61321;Laerm;17737;52.586;13.284;2023-12-14T02:44:46;84.92;73.68;91.64;;
61321;Laerm;17737;52.586;13.284;2023-12-14T02:47:14;82.18;73.83;87.02;;
61321;Laerm;17737;52.586;13.284;2023-12-14T02:49:43;83.94;76.01;91.70;;
61321;Laerm;17737;52.586;13.284;2023-12-14T02:52:11;86.91;77.19;94.18;;
61321;Laerm;17737;52.586;13.284;2023-12-14T02:54:40;82.94;75.58;88.10;;
61321;Laerm;17737;52.586;13.284;2023-12-14T02:57:08;81.73;73.94;88.27;;
61321;Laerm;17737;52.586;13.284;2023-12-14T02:59:37;84.48;73.83;93.23;;
61321;Laerm;17737;52.586;13.284;2023-12-14T03:02:05;83.40;76.04;88.68;;
61321;Laerm;17737;52.586;13.284;2023-12-14T03:04:33;84.67;77.11;90.13;;
61321;Laerm;17737;52.586;13.284;2023-12-14T03:07:02;81.27;74.05;86.10;;
61321;Laerm;17737;52.586;13.284;2023-12-14T03:09:30;82.17;74.52;88.05;;
61321;Laerm;17737;52.586;13.284;2023-12-14T03:11:59;86.94;75.98;103.37;;
61321;Laerm;17737;52.586;13.284;2023-12-14T03:14:32;82.19;74.31;87.74;;
61321;Laerm;17737;52.586;13.284;2023-12-14T03:17:02;83.72;76.05;90.30;;
61321;Laerm;17737;52.586;13.284;2023-12-14T03:19:30;101.57;53.66;112.63;;
61321;Laerm;17737;52.586;13.284;2023-12-14T03:21:58;95.30;52.86;111.41;;
61321;Laerm;17737;52.586;13.284;2023-12-14T03:24:26;86.21;75.92;92.80;;
61321;Laerm;17737;52.586;13.284;2023-12-14T03:26:54;82.69;74.68;88.20;;
61321;Laerm;17737;52.586;13.284;2023-12-14T03:29:22;95.52;52.79;111.66;;
61321;Laerm;17737;52.586;13.284;2023-12-14T03:31:50;93.03;53.20;110.32;;
61321;Laerm;17737;52.586;13.284;2023-12-14T03:34:19;91.33;52.45;110.86;;
61321;Laerm;17737;52.586;13.284;2023-12-14T03:36:47;95.52;52.47;112.68;;
61321;Laerm;17737;52.586;13.284;2023-12-14T03:39:15;78.60;69.19;86.82;;
61321;Laerm;17737;52.586;13.284;2023-12-14T03:41:44;83.66;68.82;103.40;;
61321;Laerm;17737;52.586;13.284;2023-12-14T03:44:12;94.09;52.46;111.57;;
61321;Laerm;17737;52.586;13.284;2023-12-14T03:46:40;92.10;52.76;112.00;;
61321;Laerm;17737;52.586;13.284;2023-12-14T03:49:08;81.51;70.93;94.41;;
61321;Laerm;17737;52.586;13.284;2023-12-14T03:51:38;87.58;73.04;105.06;;
61321;Laerm;17737;52.586;13.284;2023-12-14T03:54:06;94.11;52.37;111.44;;
61321;Laerm;17737;52.586;13.284;2023-12-14T03:56:34;94.68;53.95;111.80;;
61321;Laerm;17737;52.586;13.284;2023-12-14T03:59:02;81.82;73.47;90.54;;
61321;Laerm;17737;52.586;13.284;2023-12-14T04:01:30;86.11;75.78;96.65;;
61321;Laerm;17737;52.586;13.284;2023-12-14T04:04:00;86.06;76.32;95.92;;
61321;Laerm;17737;52.586;13.284;2023-12-14T04:06:27;83.65;76.38;89.52;;
61321;Laerm;17737;52.586;13.284;2023-12-14T04:08:57;84.36;76.54;90.81;;
61321;Laerm;17737;52.586;13.284;2023-12-14T04:11:25;87.09;78.07;94.46;;
61321;Laerm;17737;52.586;13.284;2023-12-14T04:13:53;95.00;52.75;111.34;;
61321;Laerm;17737;52.586;13.284;2023-12-14T04:16:21;102.59;57.15;112.39;;
61321;Laerm;17737;52.586;13.284;2023-12-14T04:18:52;100.91;54.14;112.19;;
61321;Laerm;17737;52.586;13.284;2023-12-14T04:21:20;99.68;89.67;110.73;;
61321;Laerm;17737;52.586;13.284;2023-12-14T04:23:47;97.82;52.70;110.51;;
61321;Laerm;17737;52.586;13.284;2023-12-14T04:26:17;92.84;86.73;98.53;;
61321;Laerm;17737;52.586;13.284;2023-12-14T04:28:45;92.69;85.18;101.16;;
61321;Laerm;17737;52.586;13.284;2023-12-14T04:31:13;95.20;83.64;111.45;;
61321;Laerm;17737;52.586;13.284;2023-12-14T04:33:41;100.17;52.43;111.57;;
61321;Laerm;17737;52.586;13.284;2023-12-14T04:36:09;101.64;56.74;112.66;;
61321;Laerm;17737;52.586;13.284;2023-12-14T04:38:37;92.79;52.58;109.53;;
61321;Laerm;17737;52.586;13.284;2023-12-14T04:41:05;86.71;52.52;104.24;;
61321;Laerm;17737;52.586;13.284;2023-12-14T04:43:34;99.61;52.75;111.75;;
61321;Laerm;17737;52.586;13.284;2023-12-14T04:46:03;102.53;53.34;112.53;;
61321;Laerm;17737;52.586;13.284;2023-12-14T04:48:32;102.41;54.59;111.84;;
61321;Laerm;17737;52.586;13.284;2023-12-14T04:51:00;62.60;53.22;66.20;;
61321;Laerm;17737;52.586;13.284;2023-12-14T04:53:28;91.30;53.58;103.29;;
61321;Laerm;17737;52.586;13.284;2023-12-14T04:55:56;100.67;53.32;112.10;;
61321;Laerm;17737;52.586;13.284;2023-12-14T04:58:24;96.82;54.25;111.73;;
61321;Laerm;17737;52.586;13.284;2023-12-14T05:00:53;99.62;52.62;111.24;;
61321;Laerm;17737;52.586;13.284;2023-12-14T05:03:21;99.66;88.36;111.54;;
61321;Laerm;17737;52.586;13.284;2023-12-14T05:05:49;92.21;83.71;100.54;;
61321;Laerm;17737;52.586;13.284;2023-12-14T05:08:17;97.03;52.65;111.28;;
61321;Laerm;17737;52.586;13.284;2023-12-14T05:10:45;101.72;53.75;111.99;;
61321;Laerm;17737;52.586;13.284;2023-12-14T05:13:13;100.94;53.99;111.91;;
61321;Laerm;17737;52.586;13.284;2023-12-14T05:15:41;98.21;86.75;112.08;;
61321;Laerm;17737;52.586;13.284;2023-12-14T05:18:10;96.20;53.26;112.04;;
61321;Laerm;17737;52.586;13.284;2023-12-14T05:20:38;92.78;85.42;99.11;;
61321;Laerm;17737;52.586;13.284;2023-12-14T05:23:06;98.08;87.75;110.31;;
61321;Laerm;17737;52.586;13.284;2023-12-14T05:25:34;97.57;89.38;109.25;;
61321;Laerm;17737;52.586;13.284;2023-12-14T05:28:02;99.20;53.35;111.56;;
61321;Laerm;17737;52.586;13.284;2023-12-14T05:30:30;96.90;53.70;111.53;;
61321;Laerm;17737;52.586;13.284;2023-12-14T05:32:58;98.21;87.42;106.37;;
61321;Laerm;17737;52.586;13.284;2023-12-14T05:35:28;94.37;86.16;101.61;;
61321;Laerm;17737;52.586;13.284;2023-12-14T05:37:56;91.11;83.94;95.84;;
61321;Laerm;17737;52.586;13.284;2023-12-14T05:40:24;88.35;81.63;93.80;;
61321;Laerm;17737;52.586;13.284;2023-12-14T05:42:52;87.45;79.91;92.34;;
61321;Laerm;17737;52.586;13.284;2023-12-14T05:45:20;97.89;80.99;111.27;;
61321;Laerm;17737;52.586;13.284;2023-12-14T05:47:48;101.02;54.91;112.36;;
61321;Laerm;17737;52.586;13.284;2023-12-14T05:50:16;95.50;86.66;104.91;;
61321;Laerm;17737;52.586;13.284;2023-12-14T05:52:45;97.49;88.92;103.95;;
61321;Laerm;17737;52.586;13.284;2023-12-14T05:55:13;103.52;53.93;112.89;;
61321;Laerm;17737;52.586;13.284;2023-12-14T05:57:41;104.30;94.61;112.45;;
61321;Laerm;17737;52.586;13.284;2023-12-14T06:00:10;102.20;54.03;112.31;;
61321;Laerm;17737;52.586;13.284;2023-12-14T06:02:38;104.64;55.23;112.57;;
61321;Laerm;17737;52.586;13.284;2023-12-14T06:05:07;103.91;93.27;112.42;;
61321;Laerm;17737;52.586;13.284;2023-12-14T06:07:36;98.84;52.71;111.40;;
61321;Laerm;17737;52.586;13.284;2023-12-14T06:10:06;98.43;55.69;112.43;;
61321;Laerm;17737;52.586;13.284;2023-12-14T06:12:34;104.10;53.51;112.10;;
61321;Laerm;17737;52.586;13.284;2023-12-14T06:15:03;99.85;54.35;111.51;;
61321;Laerm;17737;52.586;13.284;2023-12-14T06:17:31;96.58;83.71;111.44;;
61321;Laerm;17737;52.586;13.284;2023-12-14T06:20:00;90.55;79.30;98.73;;
61321;Laerm;17737;52.586;13.284;2023-12-14T06:22:30;87.04;76.09;102.62;;
61321;Laerm;17737;52.586;13.284;2023-12-14T06:24:58;97.01;52.96;112.49;;
61321;Laerm;17737;52.586;13.284;2023-12-14T06:27:27;96.62;51.90;112.14;;
61321;Laerm;17737;52.586;13.284;2023-12-14T06:29:55;99.79;52.38;111.72;;
61321;Laerm;17737;52.586;13.284;2023-12-14T06:32:23;86.20;77.43;92.45;;
61321;Laerm;17737;52.586;13.284;2023-12-14T06:34:51;93.23;82.23;103.83;;
61321;Laerm;17737;52.586;13.284;2023-12-14T06:37:20;100.44;54.57;112.20;;
61321;Laerm;17737;52.586;13.284;2023-12-14T06:39:48;96.75;54.14;111.35;;
61321;Laerm;17737;52.586;13.284;2023-12-14T06:42:16;62.47;58.72;66.09;;
61321;Laerm;17737;52.586;13.284;2023-12-14T06:44:45;95.23;53.47;108.23;;
61321;Laerm;17737;52.586;13.284;2023-12-14T06:47:13;101.23;53.47;112.18;;
61321;Laerm;17737;52.586;13.284;2023-12-14T06:49:41;98.88;53.59;111.48;;
61321;Laerm;17737;52.586;13.284;2023-12-14T06:52:09;66.37;52.64;99.68;;
61321;Laerm;17737;52.586;13.284;2023-12-14T06:54:37;63.51;55.42;66.64;;
61321;Laerm;17737;52.586;13.284;2023-12-14T06:57:06;63.51;58.43;66.43;;
61321;Laerm;17737;52.586;13.284;2023-12-14T06:59:34;63.54;54.97;66.33;;
61321;Laerm;17737;52.586;13.284;2023-12-14T07:02:03;63.36;52.79;66.38;;
61321;Laerm;17737;52.586;13.284;2023-12-14T07:04:31;63.33;53.93;66.50;;
61321;Laerm;17737;52.586;13.284;2023-12-14T07:06:59;63.26;56.85;66.34;;
61321;Laerm;17737;52.586;13.284;2023-12-14T07:09:27;62.97;55.11;65.70;;
61321;Laerm;17737;52.586;13.284;2023-12-14T07:11:55;62.36;59.38;65.70;;
61321;Laerm;17737;52.586;13.284;2023-12-14T07:14:23;101.43;54.28;112.25;;
61321;Laerm;17737;52.586;13.284;2023-12-14T07:16:52;106.24;87.81;112.43;;
61321;Laerm;17737;52.586;13.284;2023-12-14T07:19:21;94.72;79.32;105.09;;
61321;Laerm;17737;52.586;13.284;2023-12-14T07:21:49;82.92;75.17;89.39;;
61321;Laerm;17737;52.586;13.284;2023-12-14T07:24:17;81.44;73.59;87.04;;
61321;Laerm;17737;52.586;13.284;2023-12-14T07:26:44;82.61;74.23;90.13;;
61321;Laerm;17737;52.586;13.284;2023-12-14T07:29:12;82.05;73.05;87.43;;
61321;Laerm;17737;52.586;13.284;2023-12-14T07:31:40;88.44;75.63;95.64;;
61321;Laerm;17737;52.586;13.284;2023-12-14T07:34:08;84.80;73.14;93.98;;
61321;Laerm;17737;52.586;13.284;2023-12-14T07:36:37;79.54;71.95;84.16;;
61321;Laerm;17737;52.586;13.284;2023-12-14T07:39:05;98.32;52.45;111.42;;
61321;Laerm;17737;52.586;13.284;2023-12-14T07:41:35;92.18;52.35;110.84;;
61321;Laerm;17737;52.586;13.284;2023-12-14T07:44:02;95.60;52.39;111.61;;
61321;Laerm;17737;52.586;13.284;2023-12-14T07:46:32;98.38;52.87;111.39;;
61321;Laerm;17737;52.586;13.284;2023-12-14T07:49:01;99.53;52.88;111.66;;
61321;Laerm;17737;52.586;13.284;2023-12-14T07:51:29;97.36;52.52;112.16;;
61321;Laerm;17737;52.586;13.284;2023-12-14T07:53:59;97.35;52.33;112.32;;
61321;Laerm;17737;52.586;13.284;2023-12-14T07:56:27;94.58;52.08;111.21;;
61321;Laerm;17737;52.586;13.284;2023-12-14T07:58:54;88.23;72.15;110.54;;
61321;Laerm;17737;52.586;13.284;2023-12-14T08:01:22;94.82;67.59;112.62;;
61321;Laerm;17737;52.586;13.284;2023-12-14T08:03:52;96.90;52.60;111.15;;
61321;Laerm;17737;52.586;13.284;2023-12-14T08:06:20;93.63;52.84;111.38;;
61321;Laerm;17737;52.586;13.284;2023-12-14T08:08:47;85.33;72.89;96.39;;
61321;Laerm;17737;52.586;13.284;2023-12-14T08:11:17;80.48;70.08;89.45;;
61321;Laerm;17737;52.586;13.284;2023-12-14T08:13:45;79.01;69.38;85.73;;
61321;Laerm;17737;52.586;13.284;2023-12-14T08:16:14;78.77;68.07;85.75;;
61321;Laerm;17737;52.586;13.284;2023-12-14T08:18:43;74.17;66.43;80.44;;
61321;Laerm;17737;52.586;13.284;2023-12-14T08:21:12;74.67;66.87;80.49;;
61321;Laerm;17737;52.586;13.284;2023-12-14T08:23:40;82.68;68.31;94.35;;
61321;Laerm;17737;52.586;13.284;2023-12-14T08:26:08;84.68;52.45;109.20;;
61321;Laerm;17737;52.586;13.284;2023-12-14T08:28:39;92.09;52.08;111.84;;
61321;Laerm;17737;52.586;13.284;2023-12-14T08:31:07;81.81;73.31;87.34;;
61321;Laerm;17737;52.586;13.284;2023-12-14T08:33:37;79.87;69.81;93.13;;
61321;Laerm;17737;52.586;13.284;2023-12-14T08:36:05;81.99;71.82;93.42;;
61321;Laerm;17737;52.586;13.284;2023-12-14T08:38:33;82.08;70.43;89.33;;
61321;Laerm;17737;52.586;13.284;2023-12-14T08:41:01;82.98;75.00;88.77;;
61321;Laerm;17737;52.586;13.284;2023-12-14T08:43:29;85.47;74.15;102.71;;
61321;Laerm;17737;52.586;13.284;2023-12-14T08:45:59;84.79;73.34;97.32;;
61321;Laerm;17737;52.586;13.284;2023-12-14T08:48:27;91.71;52.53;111.40;;
61321;Laerm;17737;52.586;13.284;2023-12-14T08:50:55;78.81;70.43;84.06;;
61321;Laerm;17737;52.586;13.284;2023-12-14T08:53:23;79.24;71.57;84.29;;
61321;Laerm;17737;52.586;13.284;2023-12-14T08:55:50;80.18;71.71;85.85;;
61321;Laerm;17737;52.586;13.284;2023-12-14T08:58:19;85.38;72.03;95.30;;
61321;Laerm;17737;52.586;13.284;2023-12-14T09:00:47;80.76;69.52;87.31;;
61321;Laerm;17737;52.586;13.284;2023-12-14T09:03:21;75.89;68.25;81.12;;
61321;Laerm;17737;52.586;13.284;2023-12-14T09:05:49;74.04;65.95;80.71;;
61321;Laerm;17737;52.586;13.284;2023-12-14T09:08:17;74.17;66.23;80.92;;
61321;Laerm;17737;52.586;13.284;2023-12-14T09:10:45;94.57;53.57;111.91;;
61321;Laerm;17737;52.586;13.284;2023-12-14T09:13:13;89.57;72.64;104.51;;
61321;Laerm;17737;52.586;13.284;2023-12-14T09:15:41;89.76;72.98;110.38;;
61321;Laerm;17737;52.586;13.284;2023-12-14T09:18:09;100.56;53.19;111.81;;
61321;Laerm;17737;52.586;13.284;2023-12-14T09:20:39;98.34;52.99;111.07;;
61321;Laerm;17737;52.586;13.284;2023-12-14T09:23:09;93.96;69.54;111.90;;
61321;Laerm;17737;52.586;13.284;2023-12-14T09:25:37;80.42;65.41;94.90;;
61321;Laerm;17737;52.586;13.284;2023-12-14T09:28:04;75.92;66.88;82.62;;
61321;Laerm;17737;52.586;13.284;2023-12-14T09:30:32;73.19;65.52;79.77;;
61321;Laerm;17737;52.586;13.284;2023-12-14T09:33:00;74.00;65.94;80.69;;
61321;Laerm;17737;52.586;13.284;2023-12-14T09:35:29;73.96;65.66;80.74;;
61321;Laerm;17737;52.586;13.284;2023-12-14T09:37:58;73.98;66.11;80.55;;
61321;Laerm;17737;52.586;13.284;2023-12-14T09:40:26;75.53;66.30;82.60;;
61321;Laerm;17737;52.586;13.284;2023-12-14T09:42:55;76.23;68.10;82.20;;
61321;Laerm;17737;52.586;13.284;2023-12-14T09:45:27;81.19;70.06;88.62;;
61321;Laerm;17737;52.586;13.284;2023-12-14T09:47:55;85.89;72.89;94.61;;
61321;Laerm;17737;52.586;13.284;2023-12-14T09:50:25;87.33;78.00;93.06;;
61321;Laerm;17737;52.586;13.284;2023-12-14T09:52:53;84.70;73.70;90.95;;
61321;Laerm;17737;52.586;13.284;2023-12-14T09:55:22;83.51;72.52;93.37;;
61321;Laerm;17737;52.586;13.284;2023-12-14T09:57:50;90.52;52.43;110.58;;
61321;Laerm;17737;52.586;13.284;2023-12-14T10:00:33;75.13;64.24;85.73;;
61321;Laerm;17737;52.586;13.284;2023-12-14T10:03:20;71.90;63.50;80.04;;
61321;Laerm;17737;52.586;13.284;2023-12-14T10:05:48;68.66;62.55;76.32;;
61321;Laerm;17737;52.586;13.284;2023-12-14T10:08:17;69.16;62.94;76.49;;
61321;Laerm;17737;52.586;13.284;2023-12-14T10:10:48;69.72;63.53;76.65;;
61321;Laerm;17737;52.586;13.284;2023-12-14T10:13:18;70.61;63.55;77.91;;
61321;Laerm;17737;52.586;13.284;2023-12-14T10:15:47;78.39;63.02;90.75;;
61321;Laerm;17737;52.586;13.284;2023-12-14T10:18:22;92.88;72.61;110.20;;
61321;Laerm;17737;52.586;13.284;2023-12-14T10:20:51;80.67;62.65;100.24;;
61321;Laerm;17737;52.586;13.284;2023-12-14T10:23:20;69.48;63.23;76.53;;
61321;Laerm;17737;52.586;13.284;2023-12-14T10:25:49;67.64;61.60;75.79;;
61321;Laerm;17737;52.586;13.284;2023-12-14T10:28:17;66.01;60.31;73.36;;
61321;Laerm;17737;52.586;13.284;2023-12-14T10:30:45;66.31;61.25;74.75;;
61321;Laerm;17737;52.586;13.284;2023-12-14T10:33:13;72.08;61.65;82.84;;
61321;Laerm;17737;52.586;13.284;2023-12-14T10:35:43;80.02;65.87;99.23;;
61321;Laerm;17737;52.586;13.284;2023-12-14T10:38:15;76.55;64.81;83.93;;
61321;Laerm;17737;52.586;13.284;2023-12-14T10:40:44;72.13;64.26;79.66;;
61321;Laerm;17737;52.586;13.284;2023-12-14T10:43:15;70.27;61.56;80.28;;
61321;Laerm;17737;52.586;13.284;2023-12-14T10:46:05;76.11;61.54;87.36;;
61321;Laerm;17737;52.586;13.284;2023-12-14T10:48:35;78.42;65.00;90.34;;
61321;Laerm;17737;52.586;13.284;2023-12-14T10:51:04;69.88;62.63;80.08;;
61321;Laerm;17737;52.586;13.284;2023-12-14T10:53:33;66.44;59.74;75.36;;
61321;Laerm;17737;52.586;13.284;2023-12-14T10:56:03;62.29;57.99;69.84;;
61321;Laerm;17737;52.586;13.284;2023-12-14T10:58:46;65.25;57.34;76.06;;
61321;Laerm;17737;52.586;13.284;2023-12-14T11:01:15;63.95;57.77;73.73;;
61321;Laerm;17737;52.586;13.284;2023-12-14T11:03:44;64.50;59.37;73.63;;
61321;Laerm;17737;52.586;13.284;2023-12-14T11:06:21;77.11;63.19;89.35;;
61321;Laerm;17737;52.586;13.284;2023-12-14T11:08:51;68.85;60.00;78.09;;
61321;Laerm;17737;52.586;13.284;2023-12-14T11:11:21;66.88;59.23;78.27;;
61321;Laerm;17737;52.586;13.284;2023-12-14T11:13:53;61.98;57.52;68.67;;
61321;Laerm;17737;52.586;13.284;2023-12-14T11:16:21;61.06;56.36;68.12;;
61321;Laerm;17737;52.586;13.284;2023-12-14T11:19:23;60.30;56.30;68.23;;
61321;Laerm;17737;52.586;13.284;2023-12-14T11:22:09;59.43;55.56;67.42;;
61321;Laerm;17737;52.586;13.284;2023-12-14T11:24:41;58.19;55.46;64.49;;
61321;Laerm;17737;52.586;13.284;2023-12-14T11:27:11;56.83;54.48;63.00;;
61321;Laerm;17737;52.586;13.284;2023-12-14T11:29:42;57.40;54.40;62.47;;
61321;Laerm;17737;52.586;13.284;2023-12-14T11:32:10;57.21;54.23;62.63;;
61321;Laerm;17737;52.586;13.284;2023-12-14T11:34:39;60.85;54.64;70.24;;
61321;Laerm;17737;52.586;13.284;2023-12-14T11:37:07;58.68;55.53;67.74;;
61321;Laerm;17737;52.586;13.284;2023-12-14T11:39:35;57.24;54.55;64.57;;
61321;Laerm;17737;52.586;13.284;2023-12-14T11:42:05;59.91;54.95;69.06;;
61321;Laerm;17737;52.586;13.284;2023-12-14T11:44:35;56.09;54.01;60.64;;
61321;Laerm;17737;52.586;13.284;2023-12-14T11:47:06;56.44;54.19;61.03;;
61321;Laerm;17737;52.586;13.284;2023-12-14T11:49:35;56.59;54.19;61.10;;
61321;Laerm;17737;52.586;13.284;2023-12-14T11:52:04;56.29;53.49;60.76;;
61321;Laerm;17737;52.586;13.284;2023-12-14T11:54:32;58.13;54.84;63.57;;
61321;Laerm;17737;52.586;13.284;2023-12-14T11:57:01;58.77;55.28;66.55;;
61321;Laerm;17737;52.586;13.284;2023-12-14T11:59:31;57.50;54.59;63.54;;
61321;Laerm;17737;52.586;13.284;2023-12-14T12:02:01;60.11;56.02;67.69;;
61321;Laerm;17737;52.586;13.284;2023-12-14T12:04:30;59.42;55.26;67.06;;
61321;Laerm;17737;52.586;13.284;2023-12-14T12:06:59;56.97;54.11;60.76;;
61321;Laerm;17737;52.586;13.284;2023-12-14T12:09:39;56.67;54.04;61.07;;
61321;Laerm;17737;52.586;13.284;2023-12-14T12:12:10;56.62;54.00;61.05;;
61321;Laerm;17737;52.586;13.284;2023-12-14T12:14:40;62.61;55.23;76.41;;
61321;Laerm;17737;52.586;13.284;2023-12-14T12:17:08;62.83;57.17;70.93;;
61321;Laerm;17737;52.586;13.284;2023-12-14T12:19:38;58.68;55.54;67.04;;
61321;Laerm;17737;52.586;13.284;2023-12-14T12:22:06;58.67;55.02;66.68;;
61321;Laerm;17737;52.586;13.284;2023-12-14T12:24:34;68.21;55.84;78.29;;
61321;Laerm;17737;52.586;13.284;2023-12-14T12:27:02;64.26;57.23;76.20;;
61321;Laerm;17737;52.586;13.284;2023-12-14T12:29:30;67.23;56.65;79.76;;
61321;Laerm;17737;52.586;13.284;2023-12-14T12:31:58;90.54;52.42;109.15;;
61321;Laerm;17737;52.586;13.284;2023-12-14T12:34:26;97.79;67.96;111.83;;
61321;Laerm;17737;52.586;13.284;2023-12-14T12:36:56;66.95;57.65;80.25;;
61321;Laerm;17737;52.586;13.284;2023-12-14T12:39:24;59.67;54.52;68.48;;
61321;Laerm;17737;52.586;13.284;2023-12-14T12:41:52;62.20;54.36;72.28;;
61321;Laerm;17737;52.586;13.284;2023-12-14T12:44:20;65.66;57.09;78.47;;
61321;Laerm;17737;52.586;13.284;2023-12-14T12:46:48;67.93;56.78;79.92;;
61321;Laerm;17737;52.586;13.284;2023-12-14T12:49:30;61.78;55.70;71.32;;
61321;Laerm;17737;52.586;13.284;2023-12-14T12:52:00;57.84;54.68;62.61;;
61321;Laerm;17737;52.586;13.284;2023-12-14T12:54:28;75.85;55.80;90.55;;
61321;Laerm;17737;52.586;13.284;2023-12-14T12:56:55;76.17;55.77;87.16;;
61321;Laerm;17737;52.586;13.284;2023-12-14T12:59:23;58.55;55.52;67.46;;
61321;Laerm;17737;52.586;13.284;2023-12-14T13:01:53;70.31;59.13;81.97;;
61321;Laerm;17737;52.586;13.284;2023-12-14T13:04:21;65.11;56.11;77.42;;
61321;Laerm;17737;52.586;13.284;2023-12-14T13:06:50;64.97;59.31;76.94;;
61321;Laerm;17737;52.586;13.284;2023-12-14T13:09:19;70.05;60.04;79.86;;
61321;Laerm;17737;52.586;13.284;2023-12-14T13:11:48;70.94;58.77;82.12;;
61321;Laerm;17737;52.586;13.284;2023-12-14T13:14:16;70.66;60.28;82.47;;
61321;Laerm;17737;52.586;13.284;2023-12-14T13:16:44;67.73;58.88;77.17;;
61321;Laerm;17737;52.586;13.284;2023-12-14T13:19:14;58.97;54.43;65.84;;
61321;Laerm;17737;52.586;13.284;2023-12-14T13:21:42;59.84;55.66;66.65;;
61321;Laerm;17737;52.586;13.284;2023-12-14T13:24:10;77.19;56.00;88.67;;
61321;Laerm;17737;52.586;13.284;2023-12-14T13:26:39;69.23;60.00;82.15;;
61321;Laerm;17737;52.586;13.284;2023-12-14T13:29:07;75.70;63.01;85.54;;
61321;Laerm;17737;52.586;13.284;2023-12-14T13:31:36;73.72;60.50;82.50;;
61321;Laerm;17737;52.586;13.284;2023-12-14T13:34:05;68.61;59.13;78.36;;
61321;Laerm;17737;52.586;13.284;2023-12-14T13:36:33;68.37;59.24;79.82;;